sensor_id;sensor_type;location;lat;lon;timestamp;temperature;humidity
5392;DHT22;2719;53.624;9.786;2023-04-22T00:01:48;13.00;97.10
5392;DHT22;2719;53.624;9.786;2023-04-22T00:04:15;12.90;96.90
5392;DHT22;2719;53.624;9.786;2023-04-22T00:06:42;12.90;96.70
5392;DHT22;2719;53.624;9.786;2023-04-22T00:09:11;12.90;96.90
5392;DHT22;2719;53.624;9.786;2023-04-22T00:11:37;12.90;96.80
5392;DHT22;2719;53.624;9.786;2023-04-22T00:14:04;12.90;97.00
5392;DHT22;2719;53.624;9.786;2023-04-22T00:16:31;12.90;96.70
5392;DHT22;2719;53.624;9.786;2023-04-22T00:18:58;12.90;96.90
5392;DHT22;2719;53.624;9.786;2023-04-22T00:21:24;12.90;96.80
5392;DHT22;2719;53.624;9.786;2023-04-22T00:23:51;12.90;96.60
5392;DHT22;2719;53.624;9.786;2023-04-22T00:26:19;12.90;96.80
5392;DHT22;2719;53.624;9.786;2023-04-22T00:28:46;12.80;96.80
5392;DHT22;2719;53.624;9.786;2023-04-22T00:31:12;12.80;97.00
5392;DHT22;2719;53.624;9.786;2023-04-22T00:33:39;12.70;96.70
5392;DHT22;2719;53.624;9.786;2023-04-22T00:36:06;12.70;96.80
5392;DHT22;2719;53.624;9.786;2023-04-22T00:38:33;12.70;96.80
5392;DHT22;2719;53.624;9.786;2023-04-22T00:41:00;12.70;96.90
5392;DHT22;2719;53.624;9.786;2023-04-22T00:43:28;12.70;97.00
5392;DHT22;2719;53.624;9.786;2023-04-22T00:45:56;12.60;96.80
5392;DHT22;2719;53.624;9.786;2023-04-22T00:48:23;12.60;97.00
5392;DHT22;2719;53.624;9.786;2023-04-22T00:50:50;12.60;96.90
5392;DHT22;2719;53.624;9.786;2023-04-22T00:53:16;12.60;97.00
5392;DHT22;2719;53.624;9.786;2023-04-22T00:55:43;12.50;97.00
5392;DHT22;2719;53.624;9.786;2023-04-22T00:58:10;12.50;97.00
5392;DHT22;2719;53.624;9.786;2023-04-22T01:00:38;12.40;97.30
5392;DHT22;2719;53.624;9.786;2023-04-22T01:03:05;12.40;97.10
5392;DHT22;2719;53.624;9.786;2023-04-22T01:05:32;12.30;97.20
5392;DHT22;2719;53.624;9.786;2023-04-22T01:08:00;12.20;97.30
5392;DHT22;2719;53.624;9.786;2023-04-22T01:10:27;12.20;97.40
5392;DHT22;2719;53.624;9.786;2023-04-22T01:12:54;12.30;97.50
5392;DHT22;2719;53.624;9.786;2023-04-22T01:15:21;12.30;97.50
5392;DHT22;2719;53.624;9.786;2023-04-22T01:17:49;12.30;97.50
5392;DHT22;2719;53.624;9.786;2023-04-22T01:20:16;12.30;97.40
5392;DHT22;2719;53.624;9.786;2023-04-22T01:22:44;12.20;97.60
5392;DHT22;2719;53.624;9.786;2023-04-22T01:25:12;12.10;97.70
5392;DHT22;2719;53.624;9.786;2023-04-22T01:27:40;12.10;97.60
5392;DHT22;2719;53.624;9.786;2023-04-22T01:30:07;12.20;97.90
5392;DHT22;2719;53.624;9.786;2023-04-22T01:32:34;12.20;98.00
5392;DHT22;2719;53.624;9.786;2023-04-22T01:35:01;12.30;97.80
5392;DHT22;2719;53.624;9.786;2023-04-22T01:37:28;12.30;97.70
5392;DHT22;2719;53.624;9.786;2023-04-22T01:39:56;12.30;97.80
5392;DHT22;2719;53.624;9.786;2023-04-22T01:42:24;12.30;97.70
5392;DHT22;2719;53.624;9.786;2023-04-22T01:44:51;12.20;97.60
5392;DHT22;2719;53.624;9.786;2023-04-22T01:47:18;12.20;98.30
5392;DHT22;2719;53.624;9.786;2023-04-22T01:49:44;12.10;97.90
5392;DHT22;2719;53.624;9.786;2023-04-22T01:52:12;12.10;98.00
5392;DHT22;2719;53.624;9.786;2023-04-22T01:54:39;12.20;98.00
5392;DHT22;2719;53.624;9.786;2023-04-22T01:57:08;12.20;98.00
5392;DHT22;2719;53.624;9.786;2023-04-22T01:59:37;12.10;97.90
5392;DHT22;2719;53.624;9.786;2023-04-22T02:02:03;12.10;98.00
5392;DHT22;2719;53.624;9.786;2023-04-22T02:04:30;12.20;98.00
5392;DHT22;2719;53.624;9.786;2023-04-22T02:06:57;12.20;97.90
5392;DHT22;2719;53.624;9.786;2023-04-22T02:09:24;12.20;97.80
5392;DHT22;2719;53.624;9.786;2023-04-22T02:11:51;12.20;98.10
5392;DHT22;2719;53.624;9.786;2023-04-22T02:14:17;12.20;98.30
5392;DHT22;2719;53.624;9.786;2023-04-22T02:16:45;12.30;98.20
5392;DHT22;2719;53.624;9.786;2023-04-22T02:19:12;12.20;98.40
5392;DHT22;2719;53.624;9.786;2023-04-22T02:21:39;12.20;98.10
5392;DHT22;2719;53.624;9.786;2023-04-22T02:24:06;12.10;98.20
5392;DHT22;2719;53.624;9.786;2023-04-22T02:26:32;12.10;98.20
5392;DHT22;2719;53.624;9.786;2023-04-22T02:28:59;12.10;98.50
5392;DHT22;2719;53.624;9.786;2023-04-22T02:31:26;12.10;98.60
5392;DHT22;2719;53.624;9.786;2023-04-22T02:33:54;12.20;98.50
5392;DHT22;2719;53.624;9.786;2023-04-22T02:36:20;12.10;98.40
5392;DHT22;2719;53.624;9.786;2023-04-22T02:38:55;12.10;98.50
5392;DHT22;2719;53.624;9.786;2023-04-22T02:41:21;12.10;98.70
5392;DHT22;2719;53.624;9.786;2023-04-22T02:43:48;12.10;98.70
5392;DHT22;2719;53.624;9.786;2023-04-22T02:46:15;12.10;98.70
5392;DHT22;2719;53.624;9.786;2023-04-22T02:48:42;12.10;98.90
5392;DHT22;2719;53.624;9.786;2023-04-22T02:51:09;12.10;99.10
5392;DHT22;2719;53.624;9.786;2023-04-22T02:53:35;12.00;98.70
5392;DHT22;2719;53.624;9.786;2023-04-22T02:56:04;12.00;99.00
5392;DHT22;2719;53.624;9.786;2023-04-22T02:58:31;12.00;99.00
5392;DHT22;2719;53.624;9.786;2023-04-22T03:00:57;12.00;99.00
5392;DHT22;2719;53.624;9.786;2023-04-22T03:03:24;12.00;99.10
5392;DHT22;2719;53.624;9.786;2023-04-22T03:05:51;12.00;99.30
5392;DHT22;2719;53.624;9.786;2023-04-22T03:08:17;12.00;99.20
5392;DHT22;2719;53.624;9.786;2023-04-22T03:10:44;12.00;99.30
5392;DHT22;2719;53.624;9.786;2023-04-22T03:13:12;12.00;99.30
5392;DHT22;2719;53.624;9.786;2023-04-22T03:15:39;12.00;99.30
5392;DHT22;2719;53.624;9.786;2023-04-22T03:18:06;12.00;99.60
5392;DHT22;2719;53.624;9.786;2023-04-22T03:20:33;11.90;99.40
5392;DHT22;2719;53.624;9.786;2023-04-22T03:23:00;11.90;99.40
5392;DHT22;2719;53.624;9.786;2023-04-22T03:25:26;11.90;99.70
5392;DHT22;2719;53.624;9.786;2023-04-22T03:27:53;11.90;99.50
5392;DHT22;2719;53.624;9.786;2023-04-22T03:30:21;11.80;99.60
5392;DHT22;2719;53.624;9.786;2023-04-22T03:32:48;11.90;99.80
5392;DHT22;2719;53.624;9.786;2023-04-22T03:35:15;11.80;99.60
5392;DHT22;2719;53.624;9.786;2023-04-22T03:37:41;11.80;99.90
5392;DHT22;2719;53.624;9.786;2023-04-22T03:40:09;11.80;99.80
5392;DHT22;2719;53.624;9.786;2023-04-22T03:42:36;11.80;99.90
5392;DHT22;2719;53.624;9.786;2023-04-22T03:45:03;11.80;99.90
5392;DHT22;2719;53.624;9.786;2023-04-22T03:47:31;11.70;99.80
5392;DHT22;2719;53.624;9.786;2023-04-22T03:49:57;11.70;99.90
5392;DHT22;2719;53.624;9.786;2023-04-22T03:52:24;11.70;99.90
5392;DHT22;2719;53.624;9.786;2023-04-22T03:54:51;11.70;99.90
5392;DHT22;2719;53.624;9.786;2023-04-22T03:57:17;11.70;99.90
5392;DHT22;2719;53.624;9.786;2023-04-22T03:59:44;11.70;99.90
5392;DHT22;2719;53.624;9.786;2023-04-22T04:02:11;11.70;99.90
5392;DHT22;2719;53.624;9.786;2023-04-22T04:04:38;11.70;99.90
5392;DHT22;2719;53.624;9.786;2023-04-22T04:07:06;11.70;99.90
5392;DHT22;2719;53.624;9.786;2023-04-22T04:09:33;11.70;99.90
5392;DHT22;2719;53.624;9.786;2023-04-22T04:11:59;11.70;99.90
5392;DHT22;2719;53.624;9.786;2023-04-22T04:14:27;11.70;99.90
5392;DHT22;2719;53.624;9.786;2023-04-22T04:16:54;11.70;99.90
5392;DHT22;2719;53.624;9.786;2023-04-22T04:19:20;11.70;99.90
5392;DHT22;2719;53.624;9.786;2023-04-22T04:21:48;11.60;99.90
5392;DHT22;2719;53.624;9.786;2023-04-22T04:24:15;11.60;99.90
5392;DHT22;2719;53.624;9.786;2023-04-22T04:26:42;11.70;99.90
5392;DHT22;2719;53.624;9.786;2023-04-22T04:29:08;11.70;99.90
5392;DHT22;2719;53.624;9.786;2023-04-22T04:31:35;11.60;99.90
5392;DHT22;2719;53.624;9.786;2023-04-22T04:34:02;11.70;99.90
5392;DHT22;2719;53.624;9.786;2023-04-22T04:36:29;11.70;99.90
5392;DHT22;2719;53.624;9.786;2023-04-22T04:38:58;11.70;99.90
5392;DHT22;2719;53.624;9.786;2023-04-22T04:41:25;11.70;99.90
5392;DHT22;2719;53.624;9.786;2023-04-22T04:43:52;11.70;99.90
5392;DHT22;2719;53.624;9.786;2023-04-22T04:46:19;11.70;99.90
5392;DHT22;2719;53.624;9.786;2023-04-22T04:48:46;11.80;99.90
5392;DHT22;2719;53.624;9.786;2023-04-22T04:51:15;11.70;99.90
5392;DHT22;2719;53.624;9.786;2023-04-22T04:53:41;11.80;99.90
5392;DHT22;2719;53.624;9.786;2023-04-22T04:56:09;11.80;99.90
5392;DHT22;2719;53.624;9.786;2023-04-22T04:58:36;11.80;99.90
5392;DHT22;2719;53.624;9.786;2023-04-22T05:01:02;11.80;99.90
5392;DHT22;2719;53.624;9.786;2023-04-22T05:03:29;11.80;99.90
5392;DHT22;2719;53.624;9.786;2023-04-22T05:05:56;11.70;99.90
5392;DHT22;2719;53.624;9.786;2023-04-22T05:08:22;11.80;99.90
5392;DHT22;2719;53.624;9.786;2023-04-22T05:10:49;11.80;99.90
5392;DHT22;2719;53.624;9.786;2023-04-22T05:13:17;11.90;99.90
5392;DHT22;2719;53.624;9.786;2023-04-22T05:15:43;11.90;99.90
5392;DHT22;2719;53.624;9.786;2023-04-22T05:18:10;11.80;99.90
5392;DHT22;2719;53.624;9.786;2023-04-22T05:20:37;11.90;99.90
5392;DHT22;2719;53.624;9.786;2023-04-22T05:23:03;12.00;99.90
5392;DHT22;2719;53.624;9.786;2023-04-22T05:25:30;12.00;99.90
5392;DHT22;2719;53.624;9.786;2023-04-22T05:27:56;12.10;99.90
5392;DHT22;2719;53.624;9.786;2023-04-22T05:30:25;12.10;99.90
5392;DHT22;2719;53.624;9.786;2023-04-22T05:32:51;12.20;99.90
5392;DHT22;2719;53.624;9.786;2023-04-22T05:35:18;12.30;99.90
5392;DHT22;2719;53.624;9.786;2023-04-22T05:37:44;12.30;99.90
5392;DHT22;2719;53.624;9.786;2023-04-22T05:40:11;12.40;99.90
5392;DHT22;2719;53.624;9.786;2023-04-22T05:42:38;12.40;99.90
5392;DHT22;2719;53.624;9.786;2023-04-22T05:45:06;12.40;99.90
5392;DHT22;2719;53.624;9.786;2023-04-22T05:47:34;12.50;99.90
5392;DHT22;2719;53.624;9.786;2023-04-22T05:50:00;12.50;99.90
5392;DHT22;2719;53.624;9.786;2023-04-22T05:52:28;12.50;99.90
5392;DHT22;2719;53.624;9.786;2023-04-22T05:54:54;12.70;99.90
5392;DHT22;2719;53.624;9.786;2023-04-22T05:57:21;12.80;99.90
5392;DHT22;2719;53.624;9.786;2023-04-22T05:59:48;12.90;99.90
5392;DHT22;2719;53.624;9.786;2023-04-22T06:02:15;12.90;99.90
5392;DHT22;2719;53.624;9.786;2023-04-22T06:04:43;13.10;99.90
5392;DHT22;2719;53.624;9.786;2023-04-22T06:07:10;13.20;99.90
5392;DHT22;2719;53.624;9.786;2023-04-22T06:09:36;13.20;99.90
5392;DHT22;2719;53.624;9.786;2023-04-22T06:12:03;13.30;99.90
5392;DHT22;2719;53.624;9.786;2023-04-22T06:14:30;13.40;99.90
5392;DHT22;2719;53.624;9.786;2023-04-22T06:16:57;13.40;99.70
5392;DHT22;2719;53.624;9.786;2023-04-22T06:19:23;13.50;99.60
5392;DHT22;2719;53.624;9.786;2023-04-22T06:21:51;13.50;99.70
5392;DHT22;2719;53.624;9.786;2023-04-22T06:24:18;13.60;99.70
5392;DHT22;2719;53.624;9.786;2023-04-22T06:26:44;13.60;99.50
5392;DHT22;2719;53.624;9.786;2023-04-22T06:29:11;13.60;99.70
5392;DHT22;2719;53.624;9.786;2023-04-22T06:31:38;13.70;99.50
5392;DHT22;2719;53.624;9.786;2023-04-22T06:34:04;13.80;99.70
5392;DHT22;2719;53.624;9.786;2023-04-22T06:36:31;13.90;99.60
5392;DHT22;2719;53.624;9.786;2023-04-22T06:39:03;14.00;99.40
5392;DHT22;2719;53.624;9.786;2023-04-22T06:41:30;14.10;98.90
5392;DHT22;2719;53.624;9.786;2023-04-22T06:43:56;14.10;99.00
5392;DHT22;2719;53.624;9.786;2023-04-22T06:46:23;14.20;99.00
5392;DHT22;2719;53.624;9.786;2023-04-22T06:48:50;14.30;99.10
5392;DHT22;2719;53.624;9.786;2023-04-22T06:51:16;14.40;98.80
5392;DHT22;2719;53.624;9.786;2023-04-22T06:53:43;14.50;98.90
5392;DHT22;2719;53.624;9.786;2023-04-22T06:56:11;14.50;98.70
5392;DHT22;2719;53.624;9.786;2023-04-22T06:58:38;14.50;98.90
5392;DHT22;2719;53.624;9.786;2023-04-22T07:01:05;14.60;99.00
5392;DHT22;2719;53.624;9.786;2023-04-22T07:03:31;14.70;98.90
5392;DHT22;2719;53.624;9.786;2023-04-22T07:05:58;14.70;99.00
5392;DHT22;2719;53.624;9.786;2023-04-22T07:08:25;14.90;98.90
5392;DHT22;2719;53.624;9.786;2023-04-22T07:10:51;15.10;98.80
5392;DHT22;2719;53.624;9.786;2023-04-22T07:13:19;15.20;98.30
5392;DHT22;2719;53.624;9.786;2023-04-22T07:15:46;15.30;98.60
5392;DHT22;2719;53.624;9.786;2023-04-22T07:18:12;15.50;98.50
5392;DHT22;2719;53.624;9.786;2023-04-22T07:20:39;15.60;98.50
5392;DHT22;2719;53.624;9.786;2023-04-22T07:23:06;15.60;97.70
5392;DHT22;2719;53.624;9.786;2023-04-22T07:25:32;15.60;98.30
5392;DHT22;2719;53.624;9.786;2023-04-22T07:27:59;15.80;98.10
5392;DHT22;2719;53.624;9.786;2023-04-22T07:30:27;15.90;97.80
5392;DHT22;2719;53.624;9.786;2023-04-22T07:32:54;16.00;98.00
5392;DHT22;2719;53.624;9.786;2023-04-22T07:35:20;16.10;97.90
5392;DHT22;2719;53.624;9.786;2023-04-22T07:37:47;16.20;98.10
5392;DHT22;2719;53.624;9.786;2023-04-22T07:40:13;16.20;97.40
5392;DHT22;2719;53.624;9.786;2023-04-22T07:42:40;16.20;97.30
5392;DHT22;2719;53.624;9.786;2023-04-22T07:45:07;16.30;97.50
5392;DHT22;2719;53.624;9.786;2023-04-22T07:47:35;16.30;97.50
5392;DHT22;2719;53.624;9.786;2023-04-22T07:50:02;16.30;97.50
5392;DHT22;2719;53.624;9.786;2023-04-22T07:52:29;16.40;97.10
5392;DHT22;2719;53.624;9.786;2023-04-22T07:54:56;16.60;97.30
5392;DHT22;2719;53.624;9.786;2023-04-22T07:57:22;16.60;97.10
5392;DHT22;2719;53.624;9.786;2023-04-22T07:59:51;16.60;97.10
5392;DHT22;2719;53.624;9.786;2023-04-22T08:02:17;16.60;97.20
5392;DHT22;2719;53.624;9.786;2023-04-22T08:04:45;16.80;96.90
5392;DHT22;2719;53.624;9.786;2023-04-22T08:07:13;16.80;97.10
5392;DHT22;2719;53.624;9.786;2023-04-22T08:09:40;16.80;96.80
5392;DHT22;2719;53.624;9.786;2023-04-22T08:12:06;16.80;96.90
5392;DHT22;2719;53.624;9.786;2023-04-22T08:14:33;16.90;97.10
5392;DHT22;2719;53.624;9.786;2023-04-22T08:17:00;17.00;97.70
5392;DHT22;2719;53.624;9.786;2023-04-22T08:19:26;17.10;97.20
5392;DHT22;2719;53.624;9.786;2023-04-22T08:21:54;17.10;96.70
5392;DHT22;2719;53.624;9.786;2023-04-22T08:24:22;17.10;97.10
5392;DHT22;2719;53.624;9.786;2023-04-22T08:26:49;17.10;97.00
5392;DHT22;2719;53.624;9.786;2023-04-22T08:29:15;17.10;97.10
5392;DHT22;2719;53.624;9.786;2023-04-22T08:31:42;17.10;97.50
5392;DHT22;2719;53.624;9.786;2023-04-22T08:34:09;17.20;97.10
5392;DHT22;2719;53.624;9.786;2023-04-22T08:36:35;17.20;97.40
5392;DHT22;2719;53.624;9.786;2023-04-22T08:39:03;17.10;97.10
5392;DHT22;2719;53.624;9.786;2023-04-22T08:41:33;17.00;97.10
5392;DHT22;2719;53.624;9.786;2023-04-22T08:44:00;17.10;97.50
5392;DHT22;2719;53.624;9.786;2023-04-22T08:46:27;17.10;97.50
5392;DHT22;2719;53.624;9.786;2023-04-22T08:48:54;17.10;97.30
5392;DHT22;2719;53.624;9.786;2023-04-22T08:51:23;17.10;97.80
5392;DHT22;2719;53.624;9.786;2023-04-22T08:53:50;17.20;98.30
5392;DHT22;2719;53.624;9.786;2023-04-22T08:56:19;17.30;98.10
5392;DHT22;2719;53.624;9.786;2023-04-22T08:58:46;17.30;97.60
5392;DHT22;2719;53.624;9.786;2023-04-22T09:01:14;17.40;98.30
5392;DHT22;2719;53.624;9.786;2023-04-22T09:03:42;17.40;98.20
5392;DHT22;2719;53.624;9.786;2023-04-22T09:06:10;17.40;97.60
5392;DHT22;2719;53.624;9.786;2023-04-22T09:08:37;17.50;98.30
5392;DHT22;2719;53.624;9.786;2023-04-22T09:11:04;17.50;97.60
5392;DHT22;2719;53.624;9.786;2023-04-22T09:13:32;17.50;97.60
5392;DHT22;2719;53.624;9.786;2023-04-22T09:16:00;17.60;97.60
5392;DHT22;2719;53.624;9.786;2023-04-22T09:18:26;17.60;98.30
5392;DHT22;2719;53.624;9.786;2023-04-22T09:20:55;17.60;98.10
5392;DHT22;2719;53.624;9.786;2023-04-22T09:23:21;17.80;98.30
5392;DHT22;2719;53.624;9.786;2023-04-22T09:25:48;17.80;98.20
5392;DHT22;2719;53.624;9.786;2023-04-22T09:28:17;17.90;98.90
5392;DHT22;2719;53.624;9.786;2023-04-22T09:30:47;18.00;98.60
5392;DHT22;2719;53.624;9.786;2023-04-22T09:33:14;18.10;98.40
5392;DHT22;2719;53.624;9.786;2023-04-22T09:35:42;18.20;97.50
5392;DHT22;2719;53.624;9.786;2023-04-22T09:38:10;18.20;98.30
5392;DHT22;2719;53.624;9.786;2023-04-22T09:40:40;18.30;98.20
5392;DHT22;2719;53.624;9.786;2023-04-22T09:43:08;18.50;97.30
5392;DHT22;2719;53.624;9.786;2023-04-22T09:45:36;18.60;96.90
5392;DHT22;2719;53.624;9.786;2023-04-22T09:48:06;18.60;96.70
5392;DHT22;2719;53.624;9.786;2023-04-22T09:50:33;18.70;97.10
5392;DHT22;2719;53.624;9.786;2023-04-22T09:53:01;18.90;96.90
5392;DHT22;2719;53.624;9.786;2023-04-22T09:55:30;19.00;96.40
5392;DHT22;2719;53.624;9.786;2023-04-22T09:58:04;19.10;96.50
5392;DHT22;2719;53.624;9.786;2023-04-22T10:00:31;19.30;96.80
5392;DHT22;2719;53.624;9.786;2023-04-22T10:02:58;19.40;96.20
5392;DHT22;2719;53.624;9.786;2023-04-22T10:05:26;19.40;95.90
5392;DHT22;2719;53.624;9.786;2023-04-22T10:07:54;19.50;96.10
5392;DHT22;2719;53.624;9.786;2023-04-22T10:10:20;19.60;96.00
5392;DHT22;2719;53.624;9.786;2023-04-22T10:12:47;19.80;96.50
5392;DHT22;2719;53.624;9.786;2023-04-22T10:15:14;19.90;95.90
5392;DHT22;2719;53.624;9.786;2023-04-22T10:17:42;19.90;95.30
5392;DHT22;2719;53.624;9.786;2023-04-22T10:20:12;20.00;95.10
5392;DHT22;2719;53.624;9.786;2023-04-22T10:22:43;20.00;95.40
5392;DHT22;2719;53.624;9.786;2023-04-22T10:25:14;20.00;94.90
5392;DHT22;2719;53.624;9.786;2023-04-22T10:27:52;20.10;94.70
5392;DHT22;2719;53.624;9.786;2023-04-22T10:30:26;20.00;94.50
5392;DHT22;2719;53.624;9.786;2023-04-22T10:32:52;20.20;95.10
5392;DHT22;2719;53.624;9.786;2023-04-22T10:35:26;20.30;94.90
5392;DHT22;2719;53.624;9.786;2023-04-22T10:37:54;20.30;94.70
5392;DHT22;2719;53.624;9.786;2023-04-22T10:40:21;20.40;95.30
5392;DHT22;2719;53.624;9.786;2023-04-22T10:42:50;20.40;94.80
5392;DHT22;2719;53.624;9.786;2023-04-22T10:45:17;20.40;94.90
5392;DHT22;2719;53.624;9.786;2023-04-22T10:47:44;20.40;94.30
5392;DHT22;2719;53.624;9.786;2023-04-22T10:50:17;20.40;94.60
5392;DHT22;2719;53.624;9.786;2023-04-22T10:52:47;20.50;94.60
5392;DHT22;2719;53.624;9.786;2023-04-22T10:55:16;20.50;94.40
5392;DHT22;2719;53.624;9.786;2023-04-22T10:57:44;20.60;94.10
5392;DHT22;2719;53.624;9.786;2023-04-22T11:00:19;20.70;93.60
5392;DHT22;2719;53.624;9.786;2023-04-22T11:02:51;20.80;93.40
5392;DHT22;2719;53.624;9.786;2023-04-22T11:05:19;20.90;94.50
5392;DHT22;2719;53.624;9.786;2023-04-22T11:07:47;21.00;93.90
5392;DHT22;2719;53.624;9.786;2023-04-22T11:13:10;21.20;94.30
5392;DHT22;2719;53.624;9.786;2023-04-22T11:15:39;21.50;93.40
5392;DHT22;2719;53.624;9.786;2023-04-22T11:18:18;21.60;92.90
5392;DHT22;2719;53.624;9.786;2023-04-22T11:20:45;21.70;92.40
5392;DHT22;2719;53.624;9.786;2023-04-22T11:23:17;21.80;92.30
5392;DHT22;2719;53.624;9.786;2023-04-22T11:25:45;21.80;92.30
5392;DHT22;2719;53.624;9.786;2023-04-22T11:28:13;22.00;92.80
5392;DHT22;2719;53.624;9.786;2023-04-22T11:30:39;22.10;92.20
5392;DHT22;2719;53.624;9.786;2023-04-22T11:33:06;22.00;91.90
5392;DHT22;2719;53.624;9.786;2023-04-22T11:35:33;22.00;91.80
5392;DHT22;2719;53.624;9.786;2023-04-22T11:38:02;22.20;92.50
5392;DHT22;2719;53.624;9.786;2023-04-22T11:40:30;22.20;92.40
5392;DHT22;2719;53.624;9.786;2023-04-22T11:42:58;22.20;93.20
5392;DHT22;2719;53.624;9.786;2023-04-22T11:45:28;22.40;92.20
5392;DHT22;2719;53.624;9.786;2023-04-22T11:47:55;22.50;92.00
5392;DHT22;2719;53.624;9.786;2023-04-22T11:50:23;22.50;91.60
5392;DHT22;2719;53.624;9.786;2023-04-22T11:52:52;22.50;92.70
5392;DHT22;2719;53.624;9.786;2023-04-22T11:55:21;22.60;91.40
5392;DHT22;2719;53.624;9.786;2023-04-22T11:57:53;22.70;91.40
5392;DHT22;2719;53.624;9.786;2023-04-22T12:00:21;22.80;92.70
5392;DHT22;2719;53.624;9.786;2023-04-22T12:02:57;22.80;92.00
5392;DHT22;2719;53.624;9.786;2023-04-22T12:05:35;22.80;92.00
5392;DHT22;2719;53.624;9.786;2023-04-22T12:08:03;22.80;91.60
5392;DHT22;2719;53.624;9.786;2023-04-22T12:10:31;22.80;91.40
5392;DHT22;2719;53.624;9.786;2023-04-22T12:12:59;22.80;91.40
5392;DHT22;2719;53.624;9.786;2023-04-22T12:15:25;22.70;92.00
5392;DHT22;2719;53.624;9.786;2023-04-22T12:17:53;22.50;92.20
5392;DHT22;2719;53.624;9.786;2023-04-22T12:20:21;22.40;91.60
5392;DHT22;2719;53.624;9.786;2023-04-22T12:22:51;22.30;92.30
5392;DHT22;2719;53.624;9.786;2023-04-22T12:25:19;22.30;92.00
5392;DHT22;2719;53.624;9.786;2023-04-22T12:27:45;22.30;91.90
5392;DHT22;2719;53.624;9.786;2023-04-22T12:30:13;22.30;91.80
5392;DHT22;2719;53.624;9.786;2023-04-22T12:32:40;22.50;92.20
5392;DHT22;2719;53.624;9.786;2023-04-22T12:35:07;22.70;92.30
5392;DHT22;2719;53.624;9.786;2023-04-22T12:37:35;22.80;92.80
5392;DHT22;2719;53.624;9.786;2023-04-22T12:40:02;23.00;92.40
5392;DHT22;2719;53.624;9.786;2023-04-22T12:42:31;23.30;91.90
5392;DHT22;2719;53.624;9.786;2023-04-22T12:44:57;23.50;92.20
5392;DHT22;2719;53.624;9.786;2023-04-22T12:47:24;23.70;91.40
5392;DHT22;2719;53.624;9.786;2023-04-22T12:49:50;23.70;91.30
5392;DHT22;2719;53.624;9.786;2023-04-22T12:52:17;23.70;92.10
5392;DHT22;2719;53.624;9.786;2023-04-22T12:54:45;23.80;91.60
5392;DHT22;2719;53.624;9.786;2023-04-22T12:57:12;23.80;91.50
5392;DHT22;2719;53.624;9.786;2023-04-22T12:59:38;24.00;91.20
5392;DHT22;2719;53.624;9.786;2023-04-22T13:02:05;24.10;90.80
5392;DHT22;2719;53.624;9.786;2023-04-22T13:04:32;24.20;91.30
5392;DHT22;2719;53.624;9.786;2023-04-22T13:06:59;24.20;90.40
5392;DHT22;2719;53.624;9.786;2023-04-22T13:09:25;24.40;90.80
5392;DHT22;2719;53.624;9.786;2023-04-22T13:11:53;24.50;90.00
5392;DHT22;2719;53.624;9.786;2023-04-22T13:14:20;24.60;90.80
5392;DHT22;2719;53.624;9.786;2023-04-22T13:16:47;24.70;90.60
5392;DHT22;2719;53.624;9.786;2023-04-22T13:19:13;25.00;89.00
5392;DHT22;2719;53.624;9.786;2023-04-22T13:21:40;24.90;88.30
5392;DHT22;2719;53.624;9.786;2023-04-22T13:24:07;25.00;88.20
5392;DHT22;2719;53.624;9.786;2023-04-22T13:26:35;24.90;86.80
5392;DHT22;2719;53.624;9.786;2023-04-22T13:29:04;25.00;85.00
5392;DHT22;2719;53.624;9.786;2023-04-22T13:31:36;25.00;86.80
5392;DHT22;2719;53.624;9.786;2023-04-22T13:34:02;25.00;86.70
5392;DHT22;2719;53.624;9.786;2023-04-22T13:36:29;24.90;86.70
5392;DHT22;2719;53.624;9.786;2023-04-22T13:38:56;25.00;85.90
5392;DHT22;2719;53.624;9.786;2023-04-22T13:41:23;25.20;86.20
5392;DHT22;2719;53.624;9.786;2023-04-22T13:43:49;25.10;86.30
5392;DHT22;2719;53.624;9.786;2023-04-22T13:46:20;25.10;83.00
5392;DHT22;2719;53.624;9.786;2023-04-22T13:48:46;25.20;85.70
5392;DHT22;2719;53.624;9.786;2023-04-22T13:51:13;25.10;84.50
5392;DHT22;2719;53.624;9.786;2023-04-22T13:53:40;25.30;84.10
5392;DHT22;2719;53.624;9.786;2023-04-22T13:56:07;25.30;85.10
5392;DHT22;2719;53.624;9.786;2023-04-22T13:58:33;25.30;84.10
5392;DHT22;2719;53.624;9.786;2023-04-22T14:01:00;25.20;82.60
5392;DHT22;2719;53.624;9.786;2023-04-22T14:03:28;25.30;83.10
5392;DHT22;2719;53.624;9.786;2023-04-22T14:05:55;25.20;81.30
5392;DHT22;2719;53.624;9.786;2023-04-22T14:08:22;25.20;82.30
5392;DHT22;2719;53.624;9.786;2023-04-22T14:10:48;25.10;82.40
5392;DHT22;2719;53.624;9.786;2023-04-22T14:13:15;25.10;83.50
5392;DHT22;2719;53.624;9.786;2023-04-22T14:15:42;25.00;83.20
5392;DHT22;2719;53.624;9.786;2023-04-22T14:18:08;24.80;84.40
5392;DHT22;2719;53.624;9.786;2023-04-22T14:20:36;24.60;83.90
5392;DHT22;2719;53.624;9.786;2023-04-22T14:23:03;24.50;84.60
5392;DHT22;2719;53.624;9.786;2023-04-22T14:25:30;24.40;83.80
5392;DHT22;2719;53.624;9.786;2023-04-22T14:27:57;24.40;85.00
5392;DHT22;2719;53.624;9.786;2023-04-22T14:30:24;24.30;85.40
5392;DHT22;2719;53.624;9.786;2023-04-22T14:32:51;24.20;85.80
5392;DHT22;2719;53.624;9.786;2023-04-22T14:35:17;24.30;85.80
5392;DHT22;2719;53.624;9.786;2023-04-22T14:37:45;24.40;86.30
5392;DHT22;2719;53.624;9.786;2023-04-22T14:40:12;24.40;87.10
5392;DHT22;2719;53.624;9.786;2023-04-22T14:42:39;24.50;87.10
5392;DHT22;2719;53.624;9.786;2023-04-22T14:45:07;24.40;86.10
5392;DHT22;2719;53.624;9.786;2023-04-22T14:47:33;24.20;86.30
5392;DHT22;2719;53.624;9.786;2023-04-22T14:50:00;24.30;87.60
5392;DHT22;2719;53.624;9.786;2023-04-22T14:52:26;24.30;86.30
5392;DHT22;2719;53.624;9.786;2023-04-22T14:54:54;24.20;85.80
5392;DHT22;2719;53.624;9.786;2023-04-22T14:57:21;24.10;85.80
5392;DHT22;2719;53.624;9.786;2023-04-22T14:59:48;24.00;86.60
5392;DHT22;2719;53.624;9.786;2023-04-22T15:02:15;24.00;87.10
5392;DHT22;2719;53.624;9.786;2023-04-22T15:04:42;23.90;86.80
5392;DHT22;2719;53.624;9.786;2023-04-22T15:07:08;23.90;87.30
5392;DHT22;2719;53.624;9.786;2023-04-22T15:09:35;23.80;87.20
5392;DHT22;2719;53.624;9.786;2023-04-22T15:12:03;23.90;89.70
5392;DHT22;2719;53.624;9.786;2023-04-22T15:14:30;23.90;87.30
5392;DHT22;2719;53.624;9.786;2023-04-22T15:16:57;23.90;87.00
5392;DHT22;2719;53.624;9.786;2023-04-22T15:19:24;24.00;88.20
5392;DHT22;2719;53.624;9.786;2023-04-22T15:21:51;24.10;87.60
5392;DHT22;2719;53.624;9.786;2023-04-22T15:24:17;24.20;87.30
5392;DHT22;2719;53.624;9.786;2023-04-22T15:26:45;24.30;87.40
5392;DHT22;2719;53.624;9.786;2023-04-22T15:29:13;24.40;87.30
5392;DHT22;2719;53.624;9.786;2023-04-22T15:31:40;24.40;86.00
5392;DHT22;2719;53.624;9.786;2023-04-22T15:34:07;24.40;87.10
5392;DHT22;2719;53.624;9.786;2023-04-22T15:36:34;24.50;86.20
5392;DHT22;2719;53.624;9.786;2023-04-22T15:39:00;24.50;88.10
5392;DHT22;2719;53.624;9.786;2023-04-22T15:41:27;24.60;86.20
5392;DHT22;2719;53.624;9.786;2023-04-22T15:43:54;24.70;87.60
5392;DHT22;2719;53.624;9.786;2023-04-22T15:46:22;24.70;86.70
5392;DHT22;2719;53.624;9.786;2023-04-22T15:48:49;24.70;87.20
5392;DHT22;2719;53.624;9.786;2023-04-22T15:51:16;24.50;86.20
5392;DHT22;2719;53.624;9.786;2023-04-22T15:53:44;24.40;86.60
5392;DHT22;2719;53.624;9.786;2023-04-22T15:56:10;24.30;86.30
5392;DHT22;2719;53.624;9.786;2023-04-22T15:58:38;24.10;87.10
5392;DHT22;2719;53.624;9.786;2023-04-22T16:01:05;24.10;87.70
5392;DHT22;2719;53.624;9.786;2023-04-22T16:03:33;24.00;87.90
5392;DHT22;2719;53.624;9.786;2023-04-22T16:06:00;23.90;87.50